createdAt,value
2019-03-08T00:00:41.315Z,1.85
2019-03-08T00:03:09.467Z,1.17
2019-03-08T00:05:38.062Z,1.30
2019-03-08T00:08:06.064Z,1.67
2019-03-08T00:10:34.039Z,1.20
2019-03-08T00:13:02.213Z,1.35
2019-03-08T00:15:30.393Z,1.25
2019-03-08T00:17:58.211Z,1.30
2019-03-08T00:20:26.029Z,1.22
2019-03-08T00:22:54.610Z,1.22
2019-03-08T00:25:22.442Z,1.25
2019-03-08T00:27:50.831Z,1.15
2019-03-08T00:30:18.661Z,1.37
2019-03-08T00:32:46.638Z,1.00
2019-03-08T00:35:15.158Z,1.22
2019-03-08T00:37:43.975Z,1.32
2019-03-08T00:40:12.200Z,1.17
2019-03-08T00:42:40.353Z,1.20
2019-03-08T00:45:09.358Z,1.40
2019-03-08T00:47:37.783Z,1.10
2019-03-08T00:50:05.972Z,1.32
2019-03-08T00:52:34.931Z,1.35
2019-03-08T00:55:03.002Z,1.10
2019-03-08T00:57:30.692Z,1.27
2019-03-08T00:59:58.537Z,1.25
2019-03-08T01:02:26.857Z,1.10
2019-03-08T01:04:54.545Z,1.10
2019-03-08T01:07:22.404Z,1.40
2019-03-08T01:09:50.209Z,1.40
2019-03-08T01:12:17.938Z,1.07
2019-03-08T01:14:45.961Z,1.12
2019-03-08T01:17:15.428Z,1.37
2019-03-08T01:19:43.757Z,1.27
2019-03-08T01:22:11.449Z,1.25
2019-03-08T01:24:39.273Z,1.55
2019-03-08T01:27:07.298Z,1.15
2019-03-08T01:29:35.302Z,1.30
2019-03-08T01:32:05.384Z,1.00
2019-03-08T01:34:33.067Z,1.15
2019-03-08T01:37:01.062Z,1.22
2019-03-08T01:39:28.875Z,1.10
2019-03-08T01:41:56.717Z,1.27
2019-03-08T01:44:25.092Z,1.15
2019-03-08T01:46:54.260Z,1.20
2019-03-08T01:49:22.441Z,0.98
2019-03-08T01:51:50.952Z,1.10
2019-03-08T01:54:19.184Z,1.00
2019-03-08T01:56:47.488Z,1.02
2019-03-08T01:59:15.528Z,1.00
2019-03-08T02:01:43.343Z,1.00
2019-03-08T02:04:12.025Z,1.40
2019-03-08T02:06:39.949Z,1.10
2019-03-08T02:09:07.864Z,1.10
2019-03-08T02:11:35.638Z,1.00
2019-03-08T02:14:03.578Z,1.02
2019-03-08T02:16:31.670Z,1.07
2019-03-08T02:19:00.490Z,1.00
2019-03-08T02:21:28.578Z,1.30
2019-03-08T02:23:56.251Z,1.30
2019-03-08T02:26:24.226Z,1.32
2019-03-08T02:28:52.553Z,1.00
2019-03-08T02:31:20.396Z,1.20
2019-03-08T02:33:48.346Z,1.10
2019-03-08T02:36:17.462Z,1.47
2019-03-08T02:38:45.752Z,1.10
2019-03-08T02:41:13.837Z,1.10
2019-03-08T02:43:41.853Z,1.07
2019-03-08T02:46:09.868Z,1.00
2019-03-08T02:48:37.542Z,1.10
2019-03-08T02:51:05.602Z,1.00
2019-03-08T02:53:34.052Z,1.10
2019-03-08T02:56:01.934Z,1.00
2019-03-08T02:58:29.929Z,1.00
2019-03-08T03:00:58.209Z,1.40
2019-03-08T03:03:25.873Z,1.40
2019-03-08T03:05:53.641Z,1.15
2019-03-08T03:08:21.946Z,1.22
2019-03-08T03:10:49.838Z,0.98
2019-03-08T03:13:17.498Z,1.30
2019-03-08T03:15:45.717Z,1.20
2019-03-08T03:18:13.682Z,1.00
2019-03-08T03:20:41.834Z,1.02
2019-03-08T03:23:09.515Z,0.80
2019-03-08T03:25:37.339Z,1.22
2019-03-08T03:28:05.383Z,0.93
2019-03-08T03:30:33.124Z,0.90
2019-03-08T03:33:01.211Z,0.90
2019-03-08T03:35:29.227Z,1.15
2019-03-08T03:37:56.905Z,1.00
2019-03-08T03:40:24.630Z,1.10
2019-03-08T03:42:52.587Z,1.05
2019-03-08T03:45:20.275Z,1.00
2019-03-08T03:47:48.544Z,1.00
2019-03-08T03:50:18.731Z,0.95
2019-03-08T03:52:46.696Z,0.90
2019-03-08T03:55:14.542Z,1.00
2019-03-08T03:57:42.311Z,1.07
2019-03-08T04:00:11.989Z,0.90
2019-03-08T04:02:39.781Z,0.90
2019-03-08T04:05:07.750Z,1.00
2019-03-08T04:07:35.658Z,0.90
2019-03-08T04:10:04.441Z,1.02
2019-03-08T04:12:32.162Z,0.82
2019-03-08T04:14:59.915Z,0.80
2019-03-08T04:17:27.936Z,0.85
2019-03-08T04:19:55.651Z,1.05
2019-03-08T04:22:23.515Z,0.90
2019-03-08T04:24:51.491Z,0.82
2019-03-08T04:27:19.184Z,0.90
2019-03-08T04:29:47.232Z,0.80
2019-03-08T04:32:15.037Z,0.78
2019-03-08T04:34:43.344Z,0.80
2019-03-08T04:37:11.433Z,0.78
2019-03-08T04:39:39.464Z,0.85
2019-03-08T04:42:07.212Z,0.93
2019-03-08T04:44:36.141Z,0.80
2019-03-08T04:47:03.915Z,0.90
2019-03-08T04:49:31.686Z,0.90
2019-03-08T04:52:00.481Z,1.02
2019-03-08T04:54:28.274Z,0.90
2019-03-08T04:56:56.064Z,1.00
2019-03-08T04:59:24.211Z,0.82
2019-03-08T05:01:51.764Z,0.80
2019-03-08T05:04:19.439Z,0.85
2019-03-08T05:06:47.234Z,0.72
2019-03-08T05:09:15.306Z,0.90
2019-03-08T05:11:43.243Z,0.70
2019-03-08T05:14:11.683Z,0.80
2019-03-08T05:16:39.336Z,0.90
2019-03-08T05:19:07.146Z,0.80
2019-03-08T05:21:34.837Z,1.02
2019-03-08T05:24:02.760Z,0.80
2019-03-08T05:26:30.677Z,1.00
2019-03-08T05:29:01.436Z,0.80
2019-03-08T05:31:29.253Z,0.85
2019-03-08T05:34:03.530Z,0.90
2019-03-08T05:36:31.317Z,0.65
2019-03-08T05:38:59.497Z,0.90
2019-03-08T05:41:27.393Z,0.90
2019-03-08T05:44:45.952Z,0.82
2019-03-08T05:47:18.452Z,0.75
2019-03-08T05:49:45.939Z,0.80
2019-03-08T05:52:14.320Z,0.98
2019-03-08T05:54:43.220Z,0.80
2019-03-08T05:57:11.064Z,0.80
2019-03-08T05:59:39.859Z,0.90
2019-03-08T06:02:07.692Z,1.00
2019-03-08T06:04:36.165Z,0.90
2019-03-08T06:07:04.112Z,0.95
2019-03-08T06:09:31.795Z,1.15
2019-03-08T06:11:59.603Z,1.50
2019-03-08T06:14:27.738Z,1.17
2019-03-08T06:16:55.612Z,1.15
2019-03-08T06:19:23.589Z,1.05
2019-03-08T06:21:51.276Z,1.10
2019-03-08T06:24:18.986Z,1.10
2019-03-08T06:26:46.682Z,1.00
2019-03-08T06:29:14.913Z,1.10
2019-03-08T06:31:42.925Z,1.10
2019-03-08T06:34:11.027Z,0.93
2019-03-08T06:36:39.133Z,1.02
2019-03-08T06:39:08.562Z,0.80
2019-03-08T06:41:36.495Z,0.90
2019-03-08T06:44:04.466Z,0.95
2019-03-08T06:46:33.118Z,0.90
2019-03-08T06:49:01.009Z,1.00
2019-03-08T06:51:29.158Z,1.10
2019-03-08T06:53:57.458Z,1.00
2019-03-08T06:56:25.579Z,1.00
2019-03-08T06:59:13.561Z,0.90
2019-03-08T07:01:42.365Z,0.90
2019-03-08T07:04:10.286Z,1.30
2019-03-08T07:06:37.974Z,1.00
2019-03-08T07:09:07.280Z,0.90
2019-03-08T07:11:35.449Z,1.00
2019-03-08T07:14:03.443Z,1.10
2019-03-08T07:16:31.486Z,1.05
2019-03-08T07:18:59.561Z,0.90
2019-03-08T07:21:40.929Z,1.10
2019-03-08T07:24:18.525Z,1.20
2019-03-08T07:27:13.333Z,0.90
2019-03-08T07:30:06.829Z,0.95
2019-03-08T07:32:43.692Z,1.00
2019-03-08T07:35:48.826Z,0.90
2019-03-08T07:38:39.547Z,1.00
2019-03-08T07:41:29.723Z,1.05
2019-03-08T07:44:06.247Z,1.12
2019-03-08T07:47:09.507Z,1.20
2019-03-08T07:50:06.699Z,1.42
2019-03-08T07:52:54.330Z,1.20
2019-03-08T07:55:33.034Z,1.32
2019-03-08T07:58:12.543Z,1.10
2019-03-08T08:01:06.163Z,1.20
2019-03-08T08:03:59.392Z,0.90
2019-03-08T08:06:37.508Z,1.60
2019-03-08T08:09:33.000Z,1.72
2019-03-08T08:12:27.061Z,1.87
2019-03-08T08:15:03.748Z,1.60
2019-03-08T08:17:46.585Z,1.75
2019-03-08T08:20:27.329Z,1.30
2019-03-08T08:23:20.910Z,1.30
2019-03-08T08:25:58.958Z,1.35
2019-03-08T08:28:49.723Z,1.40
2019-03-08T08:31:35.822Z,1.50
2019-03-08T08:34:24.606Z,1.20
2019-03-08T08:37:14.798Z,1.30
2019-03-08T08:40:08.185Z,1.67
2019-03-08T08:42:51.548Z,1.47
2019-03-08T08:45:38.911Z,1.70
2019-03-08T08:48:21.387Z,1.80
2019-03-08T08:51:07.219Z,1.22
2019-03-08T08:53:54.674Z,2.05
2019-03-08T08:56:51.102Z,1.90
2019-03-08T08:59:38.845Z,2.25
2019-03-08T09:02:21.550Z,2.20
2019-03-08T09:05:18.916Z,2.60
2019-03-08T09:07:54.881Z,2.33
2019-03-08T09:10:41.205Z,2.20
2019-03-08T09:13:23.013Z,2.30
2019-03-08T09:16:11.317Z,1.92
2019-03-08T09:19:05.154Z,3.05
2019-03-08T09:21:55.751Z,2.55
2019-03-08T09:24:39.514Z,3.05
2019-03-08T09:27:25.628Z,3.37
2019-03-08T09:30:14.258Z,4.15
2019-03-08T09:32:48.951Z,6.30
2019-03-08T09:35:42.511Z,5.97
2019-03-08T09:38:39.270Z,5.72
2019-03-08T09:41:25.563Z,5.22
2019-03-08T09:44:00.824Z,5.70
2019-03-08T09:46:47.034Z,5.10
2019-03-08T09:49:37.186Z,4.62
2019-03-08T09:52:16.100Z,4.03
2019-03-08T09:55:04.335Z,4.62
2019-03-08T09:57:52.205Z,4.08
2019-03-08T10:00:39.781Z,3.08
2019-03-08T10:03:20.283Z,3.50
2019-03-08T10:06:22.843Z,3.50
2019-03-08T10:09:19.966Z,2.37
2019-03-08T10:12:16.569Z,3.42
2019-03-08T10:15:02.406Z,3.17
2019-03-08T10:17:49.791Z,3.27
2019-03-08T10:20:35.253Z,3.20
2019-03-08T10:23:29.006Z,2.85
2019-03-08T10:26:09.547Z,2.70
2019-03-08T10:28:56.841Z,2.52
2019-03-08T10:31:35.039Z,2.72
2019-03-08T10:34:31.715Z,2.83
2019-03-08T10:37:22.011Z,3.00
2019-03-08T10:40:14.659Z,2.72
2019-03-08T10:42:54.092Z,2.87
2019-03-08T10:45:53.549Z,2.20
2019-03-08T10:48:36.748Z,2.60
2019-03-08T10:51:26.418Z,2.50
2019-03-08T10:54:29.484Z,2.90
2019-03-08T10:57:12.932Z,2.10
2019-03-08T11:00:09.585Z,2.62
2019-03-08T11:02:57.289Z,2.62
2019-03-08T11:05:40.009Z,2.72
2019-03-08T11:08:16.641Z,1.95
2019-03-08T11:10:56.634Z,2.00
2019-03-08T11:13:45.686Z,2.35
2019-03-08T11:16:37.294Z,2.40
2019-03-08T11:19:34.084Z,2.00
2019-03-08T11:22:27.603Z,2.10
2019-03-08T11:25:13.806Z,2.08
2019-03-08T11:27:54.801Z,2.42
2019-03-08T11:30:54.439Z,2.00
2019-03-08T11:33:47.640Z,2.05
2019-03-08T11:36:32.891Z,2.12
2019-03-08T11:39:12.439Z,2.22
2019-03-08T11:42:18.503Z,2.47
2019-03-08T11:45:05.692Z,2.47
2019-03-08T11:47:44.351Z,2.20
2019-03-08T11:50:37.422Z,2.17
2019-03-08T11:53:14.187Z,1.98
2019-03-08T11:56:13.815Z,2.40
2019-03-08T11:59:03.457Z,2.22
2019-03-08T12:01:53.803Z,2.25
2019-03-08T12:04:40.863Z,2.15
2019-03-08T12:07:17.362Z,2.05
2019-03-08T12:10:03.182Z,2.35
2019-03-08T12:12:56.473Z,2.27
2019-03-08T12:15:46.793Z,2.00
2019-03-08T12:18:34.257Z,2.22
2019-03-08T12:21:20.398Z,1.80
2019-03-08T12:24:19.951Z,2.25
2019-03-08T12:27:07.487Z,2.35
2019-03-08T12:30:04.715Z,2.37
2019-03-08T12:32:38.061Z,2.77
2019-03-08T12:35:26.198Z,3.02
2019-03-08T12:38:11.354Z,2.25
2019-03-08T12:41:04.665Z,2.37
2019-03-08T12:43:54.987Z,2.30
2019-03-08T12:46:51.393Z,2.25
2019-03-08T12:49:34.180Z,1.95
2019-03-08T12:52:19.273Z,2.22
2019-03-08T12:55:05.160Z,2.37
2019-03-08T12:58:01.592Z,2.20
2019-03-08T13:00:55.262Z,2.55
2019-03-08T13:03:35.118Z,2.15
2019-03-08T13:06:10.742Z,2.85
2019-03-08T13:08:46.411Z,2.20
2019-03-08T13:11:14.265Z,2.35
2019-03-08T13:13:43.119Z,2.60
2019-03-08T13:16:14.230Z,2.77
2019-03-08T13:18:42.246Z,2.22
2019-03-08T13:21:10.789Z,2.30
2019-03-08T13:23:38.672Z,1.72
2019-03-08T13:26:06.535Z,2.22
2019-03-08T13:28:35.131Z,2.33
2019-03-08T13:31:05.271Z,2.02
2019-03-08T13:33:32.983Z,2.25
2019-03-08T13:36:00.682Z,2.20
2019-03-08T13:38:29.849Z,2.27
2019-03-08T13:40:58.144Z,2.92
2019-03-08T13:43:26.104Z,3.25
2019-03-08T13:46:34.922Z,2.52
2019-03-08T13:49:02.912Z,2.70
2019-03-08T13:51:30.955Z,2.20
2019-03-08T13:53:58.598Z,2.47
2019-03-08T13:56:26.558Z,2.10
2019-03-08T13:58:54.862Z,2.17
2019-03-08T14:01:22.513Z,1.95
2019-03-08T14:03:50.603Z,3.02
2019-03-08T14:06:18.961Z,2.30
2019-03-08T14:08:46.773Z,2.40
2019-03-08T14:11:14.991Z,2.12
2019-03-08T14:13:42.570Z,2.30
2019-03-08T14:16:10.630Z,1.90
2019-03-08T14:18:38.454Z,2.00
2019-03-08T14:21:06.344Z,2.02
2019-03-08T14:23:34.565Z,1.85
2019-03-08T14:26:02.268Z,2.22
2019-03-08T14:28:31.172Z,2.10
2019-03-08T14:31:08.913Z,2.00
2019-03-08T14:33:38.181Z,1.90
2019-03-08T14:36:07.147Z,2.25
2019-03-08T14:38:37.683Z,1.82
2019-03-08T14:41:21.301Z,2.40
2019-03-08T14:44:08.560Z,1.95
2019-03-08T14:46:43.780Z,1.62
2019-03-08T14:49:11.803Z,1.90
2019-03-08T14:51:40.096Z,1.82
2019-03-08T14:54:09.851Z,1.70
2019-03-08T14:56:37.929Z,2.35
2019-03-08T14:59:05.704Z,1.60
2019-03-08T15:01:33.337Z,1.90
2019-03-08T15:04:00.989Z,2.00
2019-03-08T15:06:29.611Z,1.95
2019-03-08T15:08:57.478Z,1.70
2019-03-08T15:11:25.534Z,1.82
2019-03-08T15:13:53.312Z,1.82
2019-03-08T15:16:21.746Z,2.15
2019-03-08T15:18:49.446Z,2.50
2019-03-08T15:21:17.776Z,2.17
2019-03-08T15:23:46.447Z,1.98
2019-03-08T15:26:14.386Z,2.00
2019-03-08T15:28:42.182Z,1.95
2019-03-08T15:31:09.936Z,1.70
2019-03-08T15:33:37.846Z,1.95
2019-03-08T15:36:05.492Z,1.85
2019-03-08T15:38:33.339Z,1.90
2019-03-08T15:41:01.411Z,2.17
2019-03-08T15:43:29.048Z,1.85
2019-03-08T15:45:56.738Z,1.42
2019-03-08T15:48:24.487Z,1.85
2019-03-08T15:50:52.325Z,2.00
2019-03-08T15:53:20.087Z,1.80
2019-03-08T15:55:52.798Z,1.75
2019-03-08T15:58:18.282Z,2.02
2019-03-08T16:00:46.172Z,2.00
2019-03-08T16:03:13.966Z,2.05
2019-03-08T16:05:41.716Z,2.25
2019-03-08T16:08:10.375Z,1.77
2019-03-08T16:10:39.182Z,1.98
2019-03-08T16:13:07.331Z,1.80
2019-03-08T16:15:36.109Z,2.12
2019-03-08T16:18:03.864Z,2.30
2019-03-08T16:20:31.715Z,3.30
2019-03-08T16:23:02.666Z,2.77
2019-03-08T16:25:29.527Z,2.62
2019-03-08T16:27:57.748Z,3.87
2019-03-08T16:30:31.710Z,3.40
2019-03-08T16:33:27.748Z,2.40
2019-03-08T16:36:25.707Z,2.70
2019-03-08T16:39:11.940Z,3.22
2019-03-08T16:42:18.241Z,3.30
2019-03-08T16:45:05.764Z,2.50
2019-03-08T16:47:51.953Z,3.58
2019-03-08T16:50:35.958Z,4.87
2019-03-08T16:53:21.395Z,3.87
2019-03-08T16:55:57.307Z,5.90
2019-03-08T16:58:43.550Z,4.47
2019-03-08T17:01:26.040Z,4.62
2019-03-08T17:04:12.796Z,4.10
2019-03-08T17:06:46.475Z,4.70
2019-03-08T17:09:27.800Z,4.25
2019-03-08T17:12:08.092Z,4.50
2019-03-08T17:15:10.283Z,5.30
2019-03-08T17:18:15.913Z,4.62
2019-03-08T17:21:06.307Z,5.58
2019-03-08T17:24:02.656Z,5.22
2019-03-08T17:26:52.721Z,6.55
2019-03-08T17:29:38.507Z,4.85
2019-03-08T17:32:11.785Z,5.40
2019-03-08T17:35:08.376Z,6.42
2019-03-08T17:37:50.867Z,6.28
2019-03-08T17:40:37.080Z,6.45
2019-03-08T17:43:17.806Z,5.03
2019-03-08T17:45:53.845Z,5.75
2019-03-08T17:48:47.032Z,6.33
2019-03-08T17:51:37.570Z,6.12
2019-03-08T17:54:27.586Z,6.12
2019-03-08T17:57:15.253Z,5.33
2019-03-08T18:00:15.278Z,7.05
2019-03-08T18:02:58.867Z,6.00
2019-03-08T18:05:52.476Z,6.25
2019-03-08T18:08:39.148Z,6.85
2019-03-08T18:11:17.143Z,7.10
2019-03-08T18:14:07.692Z,6.83
2019-03-08T18:16:49.859Z,6.97
2019-03-08T18:19:56.276Z,6.42
2019-03-08T18:22:44.089Z,6.55
2019-03-08T18:25:29.205Z,6.42
2019-03-08T18:28:26.006Z,6.53
2019-03-08T18:31:14.114Z,6.37
2019-03-08T18:33:47.745Z,7.05
2019-03-08T18:36:50.721Z,7.10
2019-03-08T18:39:37.702Z,7.62
2019-03-08T18:42:15.019Z,6.65
2019-03-08T18:45:04.987Z,5.87
2019-03-08T18:47:52.405Z,6.92
2019-03-08T18:50:42.586Z,7.17
2019-03-08T18:53:39.552Z,6.42
2019-03-08T18:56:26.120Z,7.70
2019-03-08T18:59:16.775Z,6.80
2019-03-08T19:02:16.938Z,7.35
2019-03-08T19:05:04.592Z,7.08
2019-03-08T19:07:55.072Z,7.55
2019-03-08T19:10:33.674Z,6.85
2019-03-08T19:13:11.375Z,7.33
2019-03-08T19:15:57.456Z,7.17
2019-03-08T19:18:44.904Z,6.97
2019-03-08T19:21:31.231Z,6.97
2019-03-08T19:24:08.268Z,6.80
2019-03-08T19:26:54.298Z,7.28
2019-03-08T19:29:45.778Z,6.37
2019-03-08T19:32:36.282Z,6.58
2019-03-08T19:35:10.726Z,6.80
2019-03-08T19:37:56.822Z,6.62
2019-03-08T19:41:02.841Z,6.55
2019-03-08T19:43:41.480Z,7.03
2019-03-08T19:46:31.987Z,6.05
2019-03-08T19:49:18.600Z,7.00
2019-03-08T19:52:05.015Z,6.22
2019-03-08T19:54:52.590Z,7.08
2019-03-08T19:57:38.792Z,6.58
2019-03-08T20:00:30.273Z,7.10
2019-03-08T20:03:17.347Z,6.97
2019-03-08T20:05:51.721Z,6.55
2019-03-08T20:08:37.597Z,6.12
2019-03-08T20:11:31.068Z,6.17
2019-03-08T20:14:18.600Z,6.72
2019-03-08T20:17:04.073Z,6.45
2019-03-08T20:19:39.265Z,6.55
2019-03-08T20:22:18.148Z,5.55
2019-03-08T20:25:11.572Z,6.33
2019-03-08T20:28:11.186Z,6.58
2019-03-08T20:30:58.670Z,5.78
2019-03-08T20:33:49.647Z,6.10
2019-03-08T20:36:36.561Z,5.58
2019-03-08T20:39:40.301Z,5.60
2019-03-08T20:42:22.444Z,5.97
2019-03-08T20:45:10.079Z,5.40
2019-03-08T20:47:37.899Z,5.37
2019-03-08T20:50:08.207Z,5.33
2019-03-08T20:52:36.236Z,5.67
2019-03-08T20:55:04.091Z,6.12
2019-03-08T20:57:32.268Z,4.70
2019-03-08T21:00:00.596Z,5.55
2019-03-08T21:02:28.793Z,5.70
2019-03-08T21:04:57.548Z,5.03
2019-03-08T21:07:25.993Z,4.50
2019-03-08T21:09:53.953Z,6.00
2019-03-08T21:12:21.660Z,5.28
2019-03-08T21:14:50.092Z,5.87
2019-03-08T21:17:20.338Z,5.45
2019-03-08T21:19:48.577Z,4.92
2019-03-08T21:22:16.689Z,5.05
2019-03-08T21:24:45.266Z,4.25
2019-03-08T21:27:13.417Z,4.85
2019-03-08T21:29:41.306Z,5.50
2019-03-08T21:32:10.778Z,4.40
2019-03-08T21:34:38.481Z,5.12
2019-03-08T21:37:06.060Z,4.53
2019-03-08T21:39:34.602Z,4.83
2019-03-08T21:42:02.531Z,4.50
2019-03-08T21:44:31.994Z,4.37
2019-03-08T21:46:59.994Z,4.62
2019-03-08T21:49:28.092Z,4.67
2019-03-08T21:51:55.951Z,4.87
2019-03-08T21:54:24.905Z,4.55
2019-03-08T21:56:53.596Z,4.08
2019-03-08T21:59:21.412Z,4.00
2019-03-08T22:01:49.059Z,4.22
2019-03-08T22:04:25.773Z,4.35
2019-03-08T22:06:53.478Z,4.75
2019-03-08T22:09:31.064Z,4.03
2019-03-08T22:11:58.776Z,4.25
2019-03-08T22:14:26.891Z,4.05
2019-03-08T22:16:54.763Z,4.55
2019-03-08T22:19:22.453Z,4.12
2019-03-08T22:21:50.284Z,3.98
2019-03-08T22:24:18.123Z,4.10
2019-03-08T22:26:45.899Z,4.20
2019-03-08T22:29:13.875Z,4.37
2019-03-08T22:31:42.160Z,3.90
2019-03-08T22:34:09.914Z,4.47
2019-03-08T22:36:37.422Z,3.50
2019-03-08T22:39:06.232Z,3.40
2019-03-08T22:41:34.336Z,3.52
2019-03-08T22:44:02.221Z,3.70
2019-03-08T22:46:30.242Z,3.50
2019-03-08T22:48:58.475Z,3.27
2019-03-08T22:51:27.560Z,3.42
2019-03-08T22:53:55.499Z,3.40
2019-03-08T22:56:23.314Z,4.05
2019-03-08T22:58:51.222Z,3.75
2019-03-08T23:01:19.926Z,3.80
2019-03-08T23:03:47.702Z,3.52
2019-03-08T23:06:17.454Z,3.33
2019-03-08T23:08:46.649Z,4.10
2019-03-08T23:11:17.086Z,3.58
2019-03-08T23:13:46.511Z,3.12
2019-03-08T23:16:16.398Z,3.60
2019-03-08T23:18:44.978Z,3.67
2019-03-08T23:21:14.219Z,3.40
2019-03-08T23:23:42.790Z,3.67
2019-03-08T23:26:10.876Z,2.90
2019-03-08T23:28:49.363Z,3.45
2019-03-08T23:31:25.319Z,2.85
2019-03-08T23:33:54.112Z,3.45
2019-03-08T23:36:22.943Z,3.15
2019-03-08T23:38:52.183Z,2.72
2019-03-08T23:41:21.393Z,3.02
2019-03-08T23:43:50.987Z,4.15
2019-03-08T23:46:19.356Z,2.90
2019-03-08T23:48:47.712Z,2.98
2019-03-08T23:51:16.190Z,2.98
2019-03-08T23:53:46.328Z,2.95
2019-03-08T23:56:14.609Z,3.92
2019-03-08T23:58:42.930Z,2.87
